sensor_id;sensor_type;location;lat;lon;timestamp;P1;durP1;ratioP1;P2;durP2;ratioP2
12591;SDS011;6361;52.120;5.108;2023-03-14T00:01:45;24.85;;;4.32;;
12591;SDS011;6361;52.120;5.108;2023-03-14T00:04:10;21.65;;;3.92;;
12591;SDS011;6361;52.120;5.108;2023-03-14T00:06:36;20.00;;;4.05;;
12591;SDS011;6361;52.120;5.108;2023-03-14T00:09:01;17.45;;;3.55;;
12591;SDS011;6361;52.120;5.108;2023-03-14T00:11:27;17.10;;;3.35;;
12591;SDS011;6361;52.120;5.108;2023-03-14T00:13:53;23.75;;;3.78;;
12591;SDS011;6361;52.120;5.108;2023-03-14T00:16:18;18.67;;;4.20;;
12591;SDS011;6361;52.120;5.108;2023-03-14T00:18:44;26.15;;;5.00;;
12591;SDS011;6361;52.120;5.108;2023-03-14T00:21:10;27.08;;;5.43;;
12591;SDS011;6361;52.120;5.108;2023-03-14T00:23:37;24.98;;;4.30;;
12591;SDS011;6361;52.120;5.108;2023-03-14T00:26:11;29.00;;;4.88;;
12591;SDS011;6361;52.120;5.108;2023-03-14T00:28:37;20.13;;;4.72;;
12591;SDS011;6361;52.120;5.108;2023-03-14T00:31:04;27.20;;;4.90;;
12591;SDS011;6361;52.120;5.108;2023-03-14T00:33:30;24.02;;;4.35;;
12591;SDS011;6361;52.120;5.108;2023-03-14T00:35:57;20.58;;;4.07;;
12591;SDS011;6361;52.120;5.108;2023-03-14T00:38:26;20.40;;;3.70;;
12591;SDS011;6361;52.120;5.108;2023-03-14T00:40:52;18.67;;;3.42;;
12591;SDS011;6361;52.120;5.108;2023-03-14T00:43:18;12.95;;;2.50;;
12591;SDS011;6361;52.120;5.108;2023-03-14T00:45:46;12.80;;;2.13;;
12591;SDS011;6361;52.120;5.108;2023-03-14T00:48:12;16.20;;;2.75;;
12591;SDS011;6361;52.120;5.108;2023-03-14T00:50:38;13.65;;;2.42;;
12591;SDS011;6361;52.120;5.108;2023-03-14T00:53:05;12.45;;;2.58;;
12591;SDS011;6361;52.120;5.108;2023-03-14T00:55:36;11.38;;;2.20;;
12591;SDS011;6361;52.120;5.108;2023-03-14T00:58:02;13.23;;;2.60;;
12591;SDS011;6361;52.120;5.108;2023-03-14T01:00:27;9.35;;;2.20;;
12591;SDS011;6361;52.120;5.108;2023-03-14T01:02:53;11.98;;;2.78;;
12591;SDS011;6361;52.120;5.108;2023-03-14T01:05:18;10.25;;;2.35;;
12591;SDS011;6361;52.120;5.108;2023-03-14T01:07:43;11.85;;;2.60;;
12591;SDS011;6361;52.120;5.108;2023-03-14T01:10:09;8.90;;;2.80;;
12591;SDS011;6361;52.120;5.108;2023-03-14T01:12:35;15.18;;;3.35;;
12591;SDS011;6361;52.120;5.108;2023-03-14T01:15:00;15.05;;;2.95;;
12591;SDS011;6361;52.120;5.108;2023-03-14T01:17:26;14.30;;;2.75;;
12591;SDS011;6361;52.120;5.108;2023-03-14T01:19:51;13.95;;;3.40;;
12591;SDS011;6361;52.120;5.108;2023-03-14T01:22:16;13.88;;;3.08;;
12591;SDS011;6361;52.120;5.108;2023-03-14T01:24:46;10.00;;;3.00;;
12591;SDS011;6361;52.120;5.108;2023-03-14T01:27:11;12.68;;;3.15;;
12591;SDS011;6361;52.120;5.108;2023-03-14T01:29:37;11.65;;;3.28;;
12591;SDS011;6361;52.120;5.108;2023-03-14T01:32:03;15.10;;;3.35;;
12591;SDS011;6361;52.120;5.108;2023-03-14T01:34:28;10.32;;;2.90;;
12591;SDS011;6361;52.120;5.108;2023-03-14T01:36:53;16.55;;;2.60;;
12591;SDS011;6361;52.120;5.108;2023-03-14T01:39:19;15.35;;;2.75;;
12591;SDS011;6361;52.120;5.108;2023-03-14T01:41:44;16.15;;;2.65;;
12591;SDS011;6361;52.120;5.108;2023-03-14T01:44:10;11.65;;;2.63;;
12591;SDS011;6361;52.120;5.108;2023-03-14T01:46:37;14.65;;;2.58;;
12591;SDS011;6361;52.120;5.108;2023-03-14T01:49:13;14.70;;;2.63;;
12591;SDS011;6361;52.120;5.108;2023-03-14T01:54:36;14.98;;;2.45;;
12591;SDS011;6361;52.120;5.108;2023-03-14T01:57:08;16.83;;;2.70;;
12591;SDS011;6361;52.120;5.108;2023-03-14T01:59:39;11.82;;;2.28;;
12591;SDS011;6361;52.120;5.108;2023-03-14T02:02:06;15.20;;;3.17;;
12591;SDS011;6361;52.120;5.108;2023-03-14T02:04:35;11.70;;;2.40;;
12591;SDS011;6361;52.120;5.108;2023-03-14T02:09:30;13.95;;;2.00;;
12591;SDS011;6361;52.120;5.108;2023-03-14T02:11:55;15.98;;;2.75;;
12591;SDS011;6361;52.120;5.108;2023-03-14T02:14:29;14.65;;;2.38;;
12591;SDS011;6361;52.120;5.108;2023-03-14T02:16:57;14.13;;;2.33;;
12591;SDS011;6361;52.120;5.108;2023-03-14T02:19:26;14.90;;;2.08;;
12591;SDS011;6361;52.120;5.108;2023-03-14T02:22:08;11.48;;;1.98;;
12591;SDS011;6361;52.120;5.108;2023-03-14T02:27:18;8.68;;;1.83;;
12591;SDS011;6361;52.120;5.108;2023-03-14T02:29:55;9.77;;;1.73;;
12591;SDS011;6361;52.120;5.108;2023-03-14T02:32:22;9.40;;;2.00;;
12591;SDS011;6361;52.120;5.108;2023-03-14T02:34:50;10.43;;;2.28;;
12591;SDS011;6361;52.120;5.108;2023-03-14T02:37:18;11.27;;;2.10;;
12591;SDS011;6361;52.120;5.108;2023-03-14T02:39:44;10.10;;;2.20;;
12591;SDS011;6361;52.120;5.108;2023-03-14T02:42:10;14.85;;;2.15;;
12591;SDS011;6361;52.120;5.108;2023-03-14T02:44:47;9.35;;;1.77;;
12591;SDS011;6361;52.120;5.108;2023-03-14T02:47:14;8.38;;;2.00;;
12591;SDS011;6361;52.120;5.108;2023-03-14T02:49:42;10.85;;;2.17;;
12591;SDS011;6361;52.120;5.108;2023-03-14T02:52:07;9.75;;;2.05;;
12591;SDS011;6361;52.120;5.108;2023-03-14T02:54:33;10.38;;;2.15;;
12591;SDS011;6361;52.120;5.108;2023-03-14T02:56:58;10.90;;;2.13;;
12591;SDS011;6361;52.120;5.108;2023-03-14T02:59:23;10.90;;;2.35;;
12591;SDS011;6361;52.120;5.108;2023-03-14T03:01:51;10.13;;;2.45;;
12591;SDS011;6361;52.120;5.108;2023-03-14T03:04:16;15.73;;;2.85;;
12591;SDS011;6361;52.120;5.108;2023-03-14T03:06:42;8.77;;;2.22;;
12591;SDS011;6361;52.120;5.108;2023-03-14T03:09:07;12.82;;;2.30;;
12591;SDS011;6361;52.120;5.108;2023-03-14T03:11:33;8.65;;;2.20;;
12591;SDS011;6361;52.120;5.108;2023-03-14T03:13:58;11.35;;;2.30;;
12591;SDS011;6361;52.120;5.108;2023-03-14T03:16:23;13.50;;;2.75;;
12591;SDS011;6361;52.120;5.108;2023-03-14T03:18:49;18.70;;;2.80;;
12591;SDS011;6361;52.120;5.108;2023-03-14T03:21:14;12.38;;;2.30;;
12591;SDS011;6361;52.120;5.108;2023-03-14T03:23:40;13.82;;;2.45;;
12591;SDS011;6361;52.120;5.108;2023-03-14T03:26:06;10.68;;;2.28;;
12591;SDS011;6361;52.120;5.108;2023-03-14T03:28:31;11.95;;;2.40;;
12591;SDS011;6361;52.120;5.108;2023-03-14T03:30:56;9.45;;;2.58;;
12591;SDS011;6361;52.120;5.108;2023-03-14T03:33:22;13.65;;;3.17;;
12591;SDS011;6361;52.120;5.108;2023-03-14T03:35:49;15.77;;;3.00;;
12591;SDS011;6361;52.120;5.108;2023-03-14T03:38:15;14.60;;;2.90;;
12591;SDS011;6361;52.120;5.108;2023-03-14T03:40:41;10.73;;;2.55;;
12591;SDS011;6361;52.120;5.108;2023-03-14T03:43:06;12.90;;;2.97;;
12591;SDS011;6361;52.120;5.108;2023-03-14T03:45:32;13.15;;;2.47;;
12591;SDS011;6361;52.120;5.108;2023-03-14T03:47:57;13.82;;;2.45;;
12591;SDS011;6361;52.120;5.108;2023-03-14T03:50:22;13.27;;;2.45;;
12591;SDS011;6361;52.120;5.108;2023-03-14T03:52:48;14.43;;;2.38;;
12591;SDS011;6361;52.120;5.108;2023-03-14T03:55:13;15.98;;;2.22;;
12591;SDS011;6361;52.120;5.108;2023-03-14T03:57:39;15.15;;;2.60;;
12591;SDS011;6361;52.120;5.108;2023-03-14T04:00:05;13.15;;;2.92;;
12591;SDS011;6361;52.120;5.108;2023-03-14T04:02:31;14.90;;;2.78;;
12591;SDS011;6361;52.120;5.108;2023-03-14T04:04:57;11.20;;;2.67;;
12591;SDS011;6361;52.120;5.108;2023-03-14T04:07:23;13.05;;;2.38;;
12591;SDS011;6361;52.120;5.108;2023-03-14T04:09:48;12.77;;;2.60;;
12591;SDS011;6361;52.120;5.108;2023-03-14T04:12:14;10.52;;;2.70;;
12591;SDS011;6361;52.120;5.108;2023-03-14T04:14:42;15.88;;;3.10;;
12591;SDS011;6361;52.120;5.108;2023-03-14T04:17:08;11.73;;;2.40;;
12591;SDS011;6361;52.120;5.108;2023-03-14T04:19:33;12.90;;;2.40;;
12591;SDS011;6361;52.120;5.108;2023-03-14T04:21:58;11.32;;;2.47;;
12591;SDS011;6361;52.120;5.108;2023-03-14T04:24:24;12.75;;;2.72;;
12591;SDS011;6361;52.120;5.108;2023-03-14T04:26:49;9.32;;;2.08;;
12591;SDS011;6361;52.120;5.108;2023-03-14T04:29:15;15.88;;;2.92;;
12591;SDS011;6361;52.120;5.108;2023-03-14T04:31:40;13.10;;;2.63;;
12591;SDS011;6361;52.120;5.108;2023-03-14T04:34:05;17.38;;;3.30;;
12591;SDS011;6361;52.120;5.108;2023-03-14T04:36:31;11.27;;;2.30;;
12591;SDS011;6361;52.120;5.108;2023-03-14T04:38:56;10.77;;;2.20;;
12591;SDS011;6361;52.120;5.108;2023-03-14T04:41:22;10.00;;;1.90;;
12591;SDS011;6361;52.120;5.108;2023-03-14T04:43:47;9.25;;;2.22;;
12591;SDS011;6361;52.120;5.108;2023-03-14T04:46:12;13.02;;;2.30;;
12591;SDS011;6361;52.120;5.108;2023-03-14T04:48:38;13.25;;;2.67;;
12591;SDS011;6361;52.120;5.108;2023-03-14T04:51:03;10.15;;;2.45;;
12591;SDS011;6361;52.120;5.108;2023-03-14T04:53:29;13.00;;;2.88;;
12591;SDS011;6361;52.120;5.108;2023-03-14T04:55:55;9.07;;;2.50;;
12591;SDS011;6361;52.120;5.108;2023-03-14T04:58:21;8.93;;;2.50;;
12591;SDS011;6361;52.120;5.108;2023-03-14T05:00:47;11.23;;;2.45;;
12591;SDS011;6361;52.120;5.108;2023-03-14T05:03:14;7.28;;;2.33;;
12591;SDS011;6361;52.120;5.108;2023-03-14T05:05:40;12.25;;;2.72;;
12591;SDS011;6361;52.120;5.108;2023-03-14T05:08:05;14.50;;;2.75;;
12591;SDS011;6361;52.120;5.108;2023-03-14T05:10:31;9.43;;;2.47;;
12591;SDS011;6361;52.120;5.108;2023-03-14T05:12:56;9.63;;;2.65;;
12591;SDS011;6361;52.120;5.108;2023-03-14T05:15:21;8.45;;;2.28;;
12591;SDS011;6361;52.120;5.108;2023-03-14T05:17:47;13.95;;;3.03;;
12591;SDS011;6361;52.120;5.108;2023-03-14T05:20:14;11.30;;;2.85;;
12591;SDS011;6361;52.120;5.108;2023-03-14T05:22:39;11.32;;;2.70;;
12591;SDS011;6361;52.120;5.108;2023-03-14T05:25:05;11.60;;;2.92;;
12591;SDS011;6361;52.120;5.108;2023-03-14T05:27:31;11.05;;;3.13;;
12591;SDS011;6361;52.120;5.108;2023-03-14T05:29:57;9.70;;;3.10;;
12591;SDS011;6361;52.120;5.108;2023-03-14T05:32:22;7.45;;;3.05;;
12591;SDS011;6361;52.120;5.108;2023-03-14T05:34:48;7.68;;;3.10;;
12591;SDS011;6361;52.120;5.108;2023-03-14T05:37:13;11.25;;;3.78;;
12591;SDS011;6361;52.120;5.108;2023-03-14T05:39:38;10.43;;;3.50;;
12591;SDS011;6361;52.120;5.108;2023-03-14T05:42:04;8.32;;;3.03;;
12591;SDS011;6361;52.120;5.108;2023-03-14T05:44:29;9.45;;;3.92;;
12591;SDS011;6361;52.120;5.108;2023-03-14T05:46:55;14.88;;;4.10;;
12591;SDS011;6361;52.120;5.108;2023-03-14T05:49:20;8.30;;;3.75;;
12591;SDS011;6361;52.120;5.108;2023-03-14T05:51:45;10.05;;;4.25;;
12591;SDS011;6361;52.120;5.108;2023-03-14T05:54:13;13.02;;;5.10;;
12591;SDS011;6361;52.120;5.108;2023-03-14T05:56:39;11.77;;;4.38;;
12591;SDS011;6361;52.120;5.108;2023-03-14T05:59:04;11.25;;;4.65;;
12591;SDS011;6361;52.120;5.108;2023-03-14T06:01:29;13.55;;;4.93;;
12591;SDS011;6361;52.120;5.108;2023-03-14T06:03:55;8.90;;;4.82;;
12591;SDS011;6361;52.120;5.108;2023-03-14T06:06:21;14.20;;;5.28;;
12591;SDS011;6361;52.120;5.108;2023-03-14T06:08:46;10.65;;;5.20;;
12591;SDS011;6361;52.120;5.108;2023-03-14T06:11:12;12.80;;;5.70;;
12591;SDS011;6361;52.120;5.108;2023-03-14T06:13:37;11.38;;;4.53;;
12591;SDS011;6361;52.120;5.108;2023-03-14T06:16:02;10.45;;;4.40;;
12591;SDS011;6361;52.120;5.108;2023-03-14T06:18:28;7.20;;;2.80;;
12591;SDS011;6361;52.120;5.108;2023-03-14T06:20:54;7.78;;;2.40;;
12591;SDS011;6361;52.120;5.108;2023-03-14T06:23:20;6.97;;;2.10;;
12591;SDS011;6361;52.120;5.108;2023-03-14T06:25:46;8.95;;;1.67;;
12591;SDS011;6361;52.120;5.108;2023-03-14T06:28:11;4.22;;;1.50;;
12591;SDS011;6361;52.120;5.108;2023-03-14T06:30:36;2.30;;;0.88;;
12591;SDS011;6361;52.120;5.108;2023-03-14T06:33:02;4.32;;;0.80;;
12591;SDS011;6361;52.120;5.108;2023-03-14T06:35:27;4.65;;;0.95;;
12591;SDS011;6361;52.120;5.108;2023-03-14T06:37:53;4.82;;;0.65;;
12591;SDS011;6361;52.120;5.108;2023-03-14T06:40:18;2.60;;;0.73;;
12591;SDS011;6361;52.120;5.108;2023-03-14T06:42:44;2.58;;;0.82;;
12591;SDS011;6361;52.120;5.108;2023-03-14T06:45:10;3.13;;;0.77;;
12591;SDS011;6361;52.120;5.108;2023-03-14T06:47:36;3.45;;;0.75;;
12591;SDS011;6361;52.120;5.108;2023-03-14T06:50:03;3.38;;;1.13;;
12591;SDS011;6361;52.120;5.108;2023-03-14T06:52:29;1.83;;;0.65;;
12591;SDS011;6361;52.120;5.108;2023-03-14T06:54:55;1.75;;;0.82;;
12591;SDS011;6361;52.120;5.108;2023-03-14T06:57:20;4.15;;;0.85;;
12591;SDS011;6361;52.120;5.108;2023-03-14T06:59:45;3.28;;;1.00;;
12591;SDS011;6361;52.120;5.108;2023-03-14T07:02:11;5.72;;;1.25;;
12591;SDS011;6361;52.120;5.108;2023-03-14T07:04:37;5.75;;;1.15;;
12591;SDS011;6361;52.120;5.108;2023-03-14T07:07:03;6.72;;;1.33;;
12591;SDS011;6361;52.120;5.108;2023-03-14T07:09:28;2.88;;;1.40;;
12591;SDS011;6361;52.120;5.108;2023-03-14T07:11:53;2.47;;;1.13;;
12591;SDS011;6361;52.120;5.108;2023-03-14T07:14:19;3.28;;;1.00;;
12591;SDS011;6361;52.120;5.108;2023-03-14T07:16:44;4.68;;;1.10;;
12591;SDS011;6361;52.120;5.108;2023-03-14T07:19:10;7.88;;;1.30;;
12591;SDS011;6361;52.120;5.108;2023-03-14T07:21:35;5.45;;;1.15;;
12591;SDS011;6361;52.120;5.108;2023-03-14T07:24:01;2.70;;;0.98;;
12591;SDS011;6361;52.120;5.108;2023-03-14T07:26:27;3.90;;;0.80;;
12591;SDS011;6361;52.120;5.108;2023-03-14T07:28:52;4.35;;;0.90;;
12591;SDS011;6361;52.120;5.108;2023-03-14T07:31:17;4.53;;;1.05;;
12591;SDS011;6361;52.120;5.108;2023-03-14T07:33:43;3.75;;;0.90;;
12591;SDS011;6361;52.120;5.108;2023-03-14T07:36:08;6.30;;;1.15;;
12591;SDS011;6361;52.120;5.108;2023-03-14T07:38:34;5.53;;;0.82;;
12591;SDS011;6361;52.120;5.108;2023-03-14T07:41:03;4.85;;;0.95;;
12591;SDS011;6361;52.120;5.108;2023-03-14T07:43:29;4.50;;;1.10;;
12591;SDS011;6361;52.120;5.108;2023-03-14T07:45:55;6.60;;;1.02;;
12591;SDS011;6361;52.120;5.108;2023-03-14T07:48:20;3.03;;;0.90;;
12591;SDS011;6361;52.120;5.108;2023-03-14T07:50:50;4.32;;;1.20;;
12591;SDS011;6361;52.120;5.108;2023-03-14T07:53:16;5.50;;;1.20;;
12591;SDS011;6361;52.120;5.108;2023-03-14T07:55:42;5.22;;;1.15;;
12591;SDS011;6361;52.120;5.108;2023-03-14T07:58:07;6.25;;;1.20;;
12591;SDS011;6361;52.120;5.108;2023-03-14T08:00:32;6.03;;;1.10;;
12591;SDS011;6361;52.120;5.108;2023-03-14T08:02:58;6.57;;;1.20;;
12591;SDS011;6361;52.120;5.108;2023-03-14T08:05:23;4.38;;;1.00;;
12591;SDS011;6361;52.120;5.108;2023-03-14T08:07:49;12.30;;;6.55;;
12591;SDS011;6361;52.120;5.108;2023-03-14T08:10:14;5.00;;;1.30;;
12591;SDS011;6361;52.120;5.108;2023-03-14T08:12:46;6.22;;;0.88;;
12591;SDS011;6361;52.120;5.108;2023-03-14T08:15:11;5.70;;;1.15;;
12591;SDS011;6361;52.120;5.108;2023-03-14T08:17:36;5.80;;;1.05;;
12591;SDS011;6361;52.120;5.108;2023-03-14T08:20:02;3.60;;;0.95;;
12591;SDS011;6361;52.120;5.108;2023-03-14T08:22:31;4.18;;;0.90;;
12591;SDS011;6361;52.120;5.108;2023-03-14T08:24:57;5.18;;;0.93;;
12591;SDS011;6361;52.120;5.108;2023-03-14T08:27:22;6.97;;;1.80;;
12591;SDS011;6361;52.120;5.108;2023-03-14T08:29:47;6.63;;;0.90;;
12591;SDS011;6361;52.120;5.108;2023-03-14T08:32:13;5.22;;;0.70;;
12591;SDS011;6361;52.120;5.108;2023-03-14T08:34:38;5.78;;;0.73;;
12591;SDS011;6361;52.120;5.108;2023-03-14T08:37:04;4.72;;;0.82;;
12591;SDS011;6361;52.120;5.108;2023-03-14T08:39:30;7.95;;;1.25;;
12591;SDS011;6361;52.120;5.108;2023-03-14T08:41:55;3.40;;;0.60;;
12591;SDS011;6361;52.120;5.108;2023-03-14T08:44:20;5.18;;;0.93;;
12591;SDS011;6361;52.120;5.108;2023-03-14T08:46:46;2.92;;;0.80;;
12591;SDS011;6361;52.120;5.108;2023-03-14T08:49:11;4.68;;;1.08;;
12591;SDS011;6361;52.120;5.108;2023-03-14T08:51:37;7.65;;;0.90;;
12591;SDS011;6361;52.120;5.108;2023-03-14T08:54:02;4.43;;;0.90;;
12591;SDS011;6361;52.120;5.108;2023-03-14T08:56:27;8.90;;;0.80;;
12591;SDS011;6361;52.120;5.108;2023-03-14T08:58:53;6.38;;;0.77;;
12591;SDS011;6361;52.120;5.108;2023-03-14T09:01:18;17.40;;;1.40;;
12591;SDS011;6361;52.120;5.108;2023-03-14T09:03:44;8.73;;;1.50;;
12591;SDS011;6361;52.120;5.108;2023-03-14T09:06:10;10.55;;;2.00;;
12591;SDS011;6361;52.120;5.108;2023-03-14T09:08:36;7.97;;;1.30;;
12591;SDS011;6361;52.120;5.108;2023-03-14T09:11:01;8.13;;;1.50;;
12591;SDS011;6361;52.120;5.108;2023-03-14T09:13:27;8.45;;;1.30;;
12591;SDS011;6361;52.120;5.108;2023-03-14T09:15:53;7.63;;;1.25;;
12591;SDS011;6361;52.120;5.108;2023-03-14T09:18:19;14.63;;;1.75;;
12591;SDS011;6361;52.120;5.108;2023-03-14T09:20:45;13.93;;;2.05;;
12591;SDS011;6361;52.120;5.108;2023-03-14T09:23:10;14.32;;;2.20;;
12591;SDS011;6361;52.120;5.108;2023-03-14T09:25:36;14.35;;;1.98;;
12591;SDS011;6361;52.120;5.108;2023-03-14T09:28:01;13.85;;;2.10;;
12591;SDS011;6361;52.120;5.108;2023-03-14T09:30:26;16.90;;;2.05;;
12591;SDS011;6361;52.120;5.108;2023-03-14T09:32:52;15.05;;;2.05;;
12591;SDS011;6361;52.120;5.108;2023-03-14T09:35:18;16.20;;;2.60;;
12591;SDS011;6361;52.120;5.108;2023-03-14T09:37:44;18.48;;;2.35;;
12591;SDS011;6361;52.120;5.108;2023-03-14T09:40:11;17.77;;;2.45;;
12591;SDS011;6361;52.120;5.108;2023-03-14T09:42:38;19.65;;;2.45;;
12591;SDS011;6361;52.120;5.108;2023-03-14T09:45:06;16.98;;;2.17;;
12591;SDS011;6361;52.120;5.108;2023-03-14T09:47:39;14.35;;;1.95;;
12591;SDS011;6361;52.120;5.108;2023-03-14T09:50:06;16.15;;;2.50;;
12591;SDS011;6361;52.120;5.108;2023-03-14T09:52:38;20.38;;;2.40;;
12591;SDS011;6361;52.120;5.108;2023-03-14T09:55:09;15.95;;;2.20;;
12591;SDS011;6361;52.120;5.108;2023-03-14T09:57:38;16.08;;;2.28;;
12591;SDS011;6361;52.120;5.108;2023-03-14T10:00:05;21.30;;;2.55;;
12591;SDS011;6361;52.120;5.108;2023-03-14T10:02:39;18.40;;;2.72;;
12591;SDS011;6361;52.120;5.108;2023-03-14T10:05:13;21.35;;;2.88;;
12591;SDS011;6361;52.120;5.108;2023-03-14T10:07:40;20.33;;;2.38;;
12591;SDS011;6361;52.120;5.108;2023-03-14T10:10:22;19.23;;;2.47;;
12591;SDS011;6361;52.120;5.108;2023-03-14T10:12:56;21.50;;;2.40;;
12591;SDS011;6361;52.120;5.108;2023-03-14T10:15:34;16.38;;;2.40;;
12591;SDS011;6361;52.120;5.108;2023-03-14T10:18:01;19.95;;;2.67;;
12591;SDS011;6361;52.120;5.108;2023-03-14T10:20:31;17.08;;;2.55;;
12591;SDS011;6361;52.120;5.108;2023-03-14T10:23:03;17.88;;;2.50;;
12591;SDS011;6361;52.120;5.108;2023-03-14T10:25:31;19.48;;;2.42;;
12591;SDS011;6361;52.120;5.108;2023-03-14T10:27:59;16.60;;;2.75;;
12591;SDS011;6361;52.120;5.108;2023-03-14T10:30:43;20.42;;;2.75;;
12591;SDS011;6361;52.120;5.108;2023-03-14T10:33:26;24.17;;;3.22;;
12591;SDS011;6361;52.120;5.108;2023-03-14T10:38:22;20.73;;;3.17;;
12591;SDS011;6361;52.120;5.108;2023-03-14T10:40:50;24.98;;;3.55;;
12591;SDS011;6361;52.120;5.108;2023-03-14T10:43:28;21.00;;;3.60;;
12591;SDS011;6361;52.120;5.108;2023-03-14T10:46:01;25.02;;;2.92;;
12591;SDS011;6361;52.120;5.108;2023-03-14T10:48:32;13.85;;;2.65;;
12591;SDS011;6361;52.120;5.108;2023-03-14T10:53:49;18.05;;;2.75;;
12591;SDS011;6361;52.120;5.108;2023-03-14T10:56:21;24.52;;;3.55;;
12591;SDS011;6361;52.120;5.108;2023-03-14T10:58:49;26.00;;;3.42;;
12591;SDS011;6361;52.120;5.108;2023-03-14T11:04:19;22.77;;;3.20;;
12591;SDS011;6361;52.120;5.108;2023-03-14T11:14:57;18.15;;;3.05;;
12591;SDS011;6361;52.120;5.108;2023-03-14T11:19:55;15.02;;;2.60;;
12591;SDS011;6361;52.120;5.108;2023-03-14T11:30:36;21.13;;;2.72;;
12591;SDS011;6361;52.120;5.108;2023-03-14T11:33:08;20.50;;;2.30;;
12591;SDS011;6361;52.120;5.108;2023-03-14T11:35:43;12.95;;;2.20;;
12591;SDS011;6361;52.120;5.108;2023-03-14T11:38:30;17.27;;;2.42;;
12591;SDS011;6361;52.120;5.108;2023-03-14T11:41:01;16.83;;;2.45;;
12591;SDS011;6361;52.120;5.108;2023-03-14T11:43:32;16.55;;;2.10;;
12591;SDS011;6361;52.120;5.108;2023-03-14T11:46:04;15.93;;;2.67;;
12591;SDS011;6361;52.120;5.108;2023-03-14T11:48:35;16.45;;;2.25;;
12591;SDS011;6361;52.120;5.108;2023-03-14T11:51:22;14.00;;;3.53;;
12591;SDS011;6361;52.120;5.108;2023-03-14T11:54:00;14.18;;;1.70;;
12591;SDS011;6361;52.120;5.108;2023-03-14T11:59:05;13.40;;;1.95;;
12591;SDS011;6361;52.120;5.108;2023-03-14T12:01:57;10.75;;;1.90;;
12591;SDS011;6361;52.120;5.108;2023-03-14T12:07:22;11.05;;;2.00;;
12591;SDS011;6361;52.120;5.108;2023-03-14T12:09:52;14.20;;;1.65;;
12591;SDS011;6361;52.120;5.108;2023-03-14T12:12:20;9.20;;;1.88;;
12591;SDS011;6361;52.120;5.108;2023-03-14T12:14:52;12.13;;;1.70;;
12591;SDS011;6361;52.120;5.108;2023-03-14T12:17:28;10.90;;;1.70;;
12591;SDS011;6361;52.120;5.108;2023-03-14T12:20:01;7.95;;;1.70;;
12591;SDS011;6361;52.120;5.108;2023-03-14T12:23:21;11.18;;;1.83;;
12591;SDS011;6361;52.120;5.108;2023-03-14T12:25:29;10.10;;;1.70;;
12591;SDS011;6361;52.120;5.108;2023-03-14T12:35:35;9.23;;;1.50;;
12591;SDS011;6361;52.120;5.108;2023-03-14T12:38:04;7.72;;;1.40;;
12591;SDS011;6361;52.120;5.108;2023-03-14T12:41:03;9.75;;;1.45;;
12591;SDS011;6361;52.120;5.108;2023-03-14T12:43:35;10.27;;;1.67;;
12591;SDS011;6361;52.120;5.108;2023-03-14T12:46:15;7.60;;;1.38;;
12591;SDS011;6361;52.120;5.108;2023-03-14T12:49:05;9.02;;;1.38;;
12591;SDS011;6361;52.120;5.108;2023-03-14T12:51:40;8.10;;;1.40;;
12591;SDS011;6361;52.120;5.108;2023-03-14T12:54:21;6.63;;;1.20;;
12591;SDS011;6361;52.120;5.108;2023-03-14T12:59:47;10.10;;;1.35;;
12591;SDS011;6361;52.120;5.108;2023-03-14T13:05:09;8.73;;;1.50;;
12591;SDS011;6361;52.120;5.108;2023-03-14T13:10:27;8.13;;;1.45;;
12591;SDS011;6361;52.120;5.108;2023-03-14T13:15:48;6.88;;;1.58;;
12591;SDS011;6361;52.120;5.108;2023-03-14T13:18:27;5.22;;;1.30;;
12591;SDS011;6361;52.120;5.108;2023-03-14T13:21:01;9.60;;;1.33;;
12591;SDS011;6361;52.120;5.108;2023-03-14T13:23:33;8.52;;;1.25;;
12591;SDS011;6361;52.120;5.108;2023-03-14T13:25:59;10.98;;;1.73;;
12591;SDS011;6361;52.120;5.108;2023-03-14T13:28:26;8.35;;;1.33;;
12591;SDS011;6361;52.120;5.108;2023-03-14T13:30:57;9.95;;;1.70;;
12591;SDS011;6361;52.120;5.108;2023-03-14T13:33:24;8.45;;;1.30;;
12591;SDS011;6361;52.120;5.108;2023-03-14T13:35:55;10.52;;;1.60;;
12591;SDS011;6361;52.120;5.108;2023-03-14T13:38:29;9.93;;;2.05;;
12591;SDS011;6361;52.120;5.108;2023-03-14T13:40:57;11.00;;;1.67;;
12591;SDS011;6361;52.120;5.108;2023-03-14T13:43:30;10.02;;;1.70;;
12591;SDS011;6361;52.120;5.108;2023-03-14T13:46:07;12.45;;;1.92;;
12591;SDS011;6361;52.120;5.108;2023-03-14T13:48:33;9.98;;;1.90;;
12591;SDS011;6361;52.120;5.108;2023-03-14T13:51:01;11.73;;;2.92;;
12591;SDS011;6361;52.120;5.108;2023-03-14T13:53:30;7.88;;;1.48;;
12591;SDS011;6361;52.120;5.108;2023-03-14T13:55:56;7.53;;;1.42;;
12591;SDS011;6361;52.120;5.108;2023-03-14T14:00:55;10.85;;;1.50;;
12591;SDS011;6361;52.120;5.108;2023-03-14T14:03:36;10.13;;;1.50;;
12591;SDS011;6361;52.120;5.108;2023-03-14T14:06:03;7.15;;;1.50;;
12591;SDS011;6361;52.120;5.108;2023-03-14T14:08:30;7.40;;;1.35;;
12591;SDS011;6361;52.120;5.108;2023-03-14T14:10:58;9.57;;;1.58;;
12591;SDS011;6361;52.120;5.108;2023-03-14T14:13:25;11.15;;;1.75;;
12591;SDS011;6361;52.120;5.108;2023-03-14T14:15:54;10.43;;;1.48;;
12591;SDS011;6361;52.120;5.108;2023-03-14T14:18:23;9.30;;;1.70;;
12591;SDS011;6361;52.120;5.108;2023-03-14T14:20:50;6.38;;;1.30;;
12591;SDS011;6361;52.120;5.108;2023-03-14T14:23:20;7.18;;;1.52;;
12591;SDS011;6361;52.120;5.108;2023-03-14T14:25:50;7.55;;;1.20;;
12591;SDS011;6361;52.120;5.108;2023-03-14T14:28:24;8.27;;;1.20;;
12591;SDS011;6361;52.120;5.108;2023-03-14T14:33:26;10.25;;;1.23;;
12591;SDS011;6361;52.120;5.108;2023-03-14T14:36:01;5.82;;;1.20;;
12591;SDS011;6361;52.120;5.108;2023-03-14T14:38:26;10.52;;;1.75;;
12591;SDS011;6361;52.120;5.108;2023-03-14T14:40:58;5.63;;;1.40;;
12591;SDS011;6361;52.120;5.108;2023-03-14T14:43:26;8.48;;;2.58;;
12591;SDS011;6361;52.120;5.108;2023-03-14T14:45:53;13.70;;;1.50;;
12591;SDS011;6361;52.120;5.108;2023-03-14T14:48:23;9.18;;;1.42;;
12591;SDS011;6361;52.120;5.108;2023-03-14T14:50:58;10.32;;;1.77;;
12591;SDS011;6361;52.120;5.108;2023-03-14T14:53:36;8.65;;;1.55;;
12591;SDS011;6361;52.120;5.108;2023-03-14T14:56:04;8.23;;;1.50;;
12591;SDS011;6361;52.120;5.108;2023-03-14T14:58:43;9.27;;;1.50;;
12591;SDS011;6361;52.120;5.108;2023-03-14T15:01:17;11.98;;;1.55;;
12591;SDS011;6361;52.120;5.108;2023-03-14T15:03:44;7.27;;;1.70;;
12591;SDS011;6361;52.120;5.108;2023-03-14T15:06:14;9.48;;;1.42;;
12591;SDS011;6361;52.120;5.108;2023-03-14T15:08:41;10.75;;;1.70;;
12591;SDS011;6361;52.120;5.108;2023-03-14T15:11:09;9.70;;;1.50;;
12591;SDS011;6361;52.120;5.108;2023-03-14T15:13:43;11.38;;;1.30;;
12591;SDS011;6361;52.120;5.108;2023-03-14T15:16:10;9.35;;;1.48;;
12591;SDS011;6361;52.120;5.108;2023-03-14T15:18:36;4.07;;;1.15;;
12591;SDS011;6361;52.120;5.108;2023-03-14T15:21:01;10.35;;;1.48;;
12591;SDS011;6361;52.120;5.108;2023-03-14T15:23:27;10.27;;;1.40;;
12591;SDS011;6361;52.120;5.108;2023-03-14T15:25:52;7.25;;;1.20;;
12591;SDS011;6361;52.120;5.108;2023-03-14T15:28:22;7.15;;;1.38;;
12591;SDS011;6361;52.120;5.108;2023-03-14T15:30:49;9.52;;;1.30;;
12591;SDS011;6361;52.120;5.108;2023-03-14T15:33:16;6.15;;;1.10;;
12591;SDS011;6361;52.120;5.108;2023-03-14T15:35:42;9.20;;;1.40;;
12591;SDS011;6361;52.120;5.108;2023-03-14T15:38:11;5.43;;;1.40;;
12591;SDS011;6361;52.120;5.108;2023-03-14T15:40:38;7.70;;;1.38;;
12591;SDS011;6361;52.120;5.108;2023-03-14T15:43:03;6.63;;;1.45;;
12591;SDS011;6361;52.120;5.108;2023-03-14T15:45:29;11.77;;;1.45;;
12591;SDS011;6361;52.120;5.108;2023-03-14T15:47:55;7.40;;;1.48;;
12591;SDS011;6361;52.120;5.108;2023-03-14T15:50:20;7.30;;;1.40;;
12591;SDS011;6361;52.120;5.108;2023-03-14T15:52:45;7.93;;;1.30;;
12591;SDS011;6361;52.120;5.108;2023-03-14T15:55:11;6.00;;;1.40;;
12591;SDS011;6361;52.120;5.108;2023-03-14T15:57:36;8.35;;;1.60;;
12591;SDS011;6361;52.120;5.108;2023-03-14T16:00:02;8.73;;;1.60;;
12591;SDS011;6361;52.120;5.108;2023-03-14T16:02:36;12.15;;;1.52;;